sensor_id;sensor_type;location;lat;lon;timestamp;pressure;altitude;pressure_sealevel;temperature;humidity
66273;BME280;58450;52.150;4.466;2023-06-05T00:00:17;102413.31;;;13.24;100.00
66273;BME280;58450;52.150;4.466;2023-06-05T00:02:45;102405.38;;;13.22;100.00
66273;BME280;58450;52.150;4.466;2023-06-05T00:05:13;102404.69;;;13.20;100.00
66273;BME280;58450;52.150;4.466;2023-06-05T00:07:41;102400.63;;;13.16;100.00
66273;BME280;58450;52.150;4.466;2023-06-05T00:10:09;102386.09;;;13.17;100.00
66273;BME280;58450;52.150;4.466;2023-06-05T00:12:37;102404.19;;;13.17;100.00
66273;BME280;58450;52.150;4.466;2023-06-05T00:15:07;102397.09;;;13.15;100.00
66273;BME280;58450;52.150;4.466;2023-06-05T00:17:35;102396.88;;;13.09;100.00
66273;BME280;58450;52.150;4.466;2023-06-05T00:20:04;102404.16;;;13.08;100.00
66273;BME280;58450;52.150;4.466;2023-06-05T00:22:35;102399.59;;;13.09;100.00
66273;BME280;58450;52.150;4.466;2023-06-05T00:25:04;102399.25;;;13.04;100.00
66273;BME280;58450;52.150;4.466;2023-06-05T00:27:32;102404.66;;;13.04;100.00
66273;BME280;58450;52.150;4.466;2023-06-05T00:30:00;102398.56;;;13.01;100.00
66273;BME280;58450;52.150;4.466;2023-06-05T00:32:28;102394.84;;;13.03;100.00
66273;BME280;58450;52.150;4.466;2023-06-05T00:34:56;102399.41;;;13.02;100.00
66273;BME280;58450;52.150;4.466;2023-06-05T00:37:24;102390.31;;;13.03;100.00
66273;BME280;58450;52.150;4.466;2023-06-05T00:39:53;102396.38;;;13.05;100.00
66273;BME280;58450;52.150;4.466;2023-06-05T00:42:20;102397.41;;;13.04;100.00
66273;BME280;58450;52.150;4.466;2023-06-05T00:44:48;102384.38;;;12.99;100.00
66273;BME280;58450;52.150;4.466;2023-06-05T00:47:16;102390.28;;;12.95;100.00
66273;BME280;58450;52.150;4.466;2023-06-05T00:49:45;102400.22;;;12.94;100.00
66273;BME280;58450;52.150;4.466;2023-06-05T00:52:12;102394.47;;;12.89;100.00
66273;BME280;58450;52.150;4.466;2023-06-05T00:54:41;102401.88;;;12.87;100.00
66273;BME280;58450;52.150;4.466;2023-06-05T00:57:09;102407.47;;;12.85;100.00
66273;BME280;58450;52.150;4.466;2023-06-05T00:59:37;102402.53;;;12.81;100.00
66273;BME280;58450;52.150;4.466;2023-06-05T01:02:06;102401.53;;;12.82;100.00
66273;BME280;58450;52.150;4.466;2023-06-05T01:04:34;102397.50;;;12.78;100.00
66273;BME280;58450;52.150;4.466;2023-06-05T01:07:04;102403.22;;;12.75;100.00
66273;BME280;58450;52.150;4.466;2023-06-05T01:09:31;102397.81;;;12.75;100.00
66273;BME280;58450;52.150;4.466;2023-06-05T01:12:06;102395.81;;;12.77;100.00
66273;BME280;58450;52.150;4.466;2023-06-05T01:14:39;102391.38;;;12.67;100.00
66273;BME280;58450;52.150;4.466;2023-06-05T01:17:12;102392.06;;;12.69;100.00
66273;BME280;58450;52.150;4.466;2023-06-05T01:19:43;102387.50;;;12.70;100.00
66273;BME280;58450;52.150;4.466;2023-06-05T01:22:13;102389.38;;;12.69;100.00
66273;BME280;58450;52.150;4.466;2023-06-05T01:24:43;102389.38;;;12.69;100.00
66273;BME280;58450;52.150;4.466;2023-06-05T01:27:14;102385.44;;;12.64;100.00
66273;BME280;58450;52.150;4.466;2023-06-05T01:29:50;102389.84;;;12.65;100.00
66273;BME280;58450;52.150;4.466;2023-06-05T01:32:28;102390.00;;;12.63;100.00
66273;BME280;58450;52.150;4.466;2023-06-05T01:35:04;102386.63;;;12.61;100.00
66273;BME280;58450;52.150;4.466;2023-06-05T01:37:36;102388.66;;;12.59;100.00
66273;BME280;58450;52.150;4.466;2023-06-05T01:40:11;102381.56;;;12.58;100.00
66273;BME280;58450;52.150;4.466;2023-06-05T01:42:42;102379.84;;;12.57;100.00
66273;BME280;58450;52.150;4.466;2023-06-05T01:45:11;102373.59;;;12.56;100.00
66273;BME280;58450;52.150;4.466;2023-06-05T01:47:41;102377.47;;;12.54;100.00
66273;BME280;58450;52.150;4.466;2023-06-05T01:50:09;102376.47;;;12.55;100.00
66273;BME280;58450;52.150;4.466;2023-06-05T01:52:38;102379.13;;;12.47;100.00
66273;BME280;58450;52.150;4.466;2023-06-05T01:55:09;102370.03;;;12.48;100.00
66273;BME280;58450;52.150;4.466;2023-06-05T01:57:41;102370.16;;;12.46;100.00
66273;BME280;58450;52.150;4.466;2023-06-05T02:00:09;102372.03;;;12.46;100.00
66273;BME280;58450;52.150;4.466;2023-06-05T02:02:39;102365.28;;;12.41;100.00
66273;BME280;58450;52.150;4.466;2023-06-05T02:05:08;102370.81;;;12.40;100.00
66273;BME280;58450;52.150;4.466;2023-06-05T02:07:38;102371.13;;;12.37;100.00
66273;BME280;58450;52.150;4.466;2023-06-05T02:10:09;102363.91;;;12.37;100.00
66273;BME280;58450;52.150;4.466;2023-06-05T02:12:37;102372.38;;;12.43;100.00
66273;BME280;58450;52.150;4.466;2023-06-05T02:15:05;102363.59;;;12.40;100.00
66273;BME280;58450;52.150;4.466;2023-06-05T02:17:33;102375.72;;;12.36;100.00
66273;BME280;58450;52.150;4.466;2023-06-05T02:20:03;102372.19;;;12.36;100.00
66273;BME280;58450;52.150;4.466;2023-06-05T02:22:31;102369.13;;;12.31;100.00
66273;BME280;58450;52.150;4.466;2023-06-05T02:24:58;102366.06;;;12.25;100.00
66273;BME280;58450;52.150;4.466;2023-06-05T02:27:27;102358.41;;;12.21;100.00
66273;BME280;58450;52.150;4.466;2023-06-05T02:29:56;102365.00;;;12.18;100.00
66273;BME280;58450;52.150;4.466;2023-06-05T02:32:23;102363.31;;;12.17;100.00
66273;BME280;58450;52.150;4.466;2023-06-05T02:34:52;102361.38;;;12.09;100.00
66273;BME280;58450;52.150;4.466;2023-06-05T02:37:22;102367.09;;;12.06;100.00
66273;BME280;58450;52.150;4.466;2023-06-05T02:39:50;102366.41;;;12.04;100.00
66273;BME280;58450;52.150;4.466;2023-06-05T02:42:18;102365.19;;;11.98;100.00
66273;BME280;58450;52.150;4.466;2023-06-05T02:44:47;102361.94;;;11.95;100.00
66273;BME280;58450;52.150;4.466;2023-06-05T02:47:15;102364.03;;;12.01;100.00
66273;BME280;58450;52.150;4.466;2023-06-05T02:49:43;102361.72;;;12.06;100.00
66273;BME280;58450;52.150;4.466;2023-06-05T02:52:10;102357.31;;;12.05;100.00
66273;BME280;58450;52.150;4.466;2023-06-05T02:54:38;102361.78;;;11.96;100.00
66273;BME280;58450;52.150;4.466;2023-06-05T02:57:05;102357.81;;;12.01;100.00
66273;BME280;58450;52.150;4.466;2023-06-05T02:59:34;102360.34;;;12.02;100.00
66273;BME280;58450;52.150;4.466;2023-06-05T03:02:06;102357.50;;;12.04;100.00
66273;BME280;58450;52.150;4.466;2023-06-05T03:04:34;102349.53;;;12.02;100.00
66273;BME280;58450;52.150;4.466;2023-06-05T03:07:02;102349.72;;;12.01;100.00
66273;BME280;58450;52.150;4.466;2023-06-05T03:09:30;102351.56;;;12.00;100.00
66273;BME280;58450;52.150;4.466;2023-06-05T03:11:58;102356.31;;;12.06;100.00
66273;BME280;58450;52.150;4.466;2023-06-05T03:14:25;102348.84;;;12.00;100.00
66273;BME280;58450;52.150;4.466;2023-06-05T03:16:53;102352.22;;;12.02;100.00
66273;BME280;58450;52.150;4.466;2023-06-05T03:19:22;102353.25;;;12.01;100.00
66273;BME280;58450;52.150;4.466;2023-06-05T03:21:49;102346.28;;;11.98;100.00
66273;BME280;58450;52.150;4.466;2023-06-05T03:24:19;102350.13;;;11.88;100.00
66273;BME280;58450;52.150;4.466;2023-06-05T03:26:50;102350.47;;;11.93;100.00
66273;BME280;58450;52.150;4.466;2023-06-05T03:29:18;102345.25;;;11.91;100.00
66273;BME280;58450;52.150;4.466;2023-06-05T03:31:46;102344.59;;;11.97;100.00
66273;BME280;58450;52.150;4.466;2023-06-05T03:34:13;102346.28;;;11.98;100.00
66273;BME280;58450;52.150;4.466;2023-06-05T03:36:42;102344.88;;;11.86;100.00
66273;BME280;58450;52.150;4.466;2023-06-05T03:39:10;102335.97;;;11.94;100.00
66273;BME280;58450;52.150;4.466;2023-06-05T03:41:38;102340.44;;;12.03;100.00
66273;BME280;58450;52.150;4.466;2023-06-05T03:44:05;102343.69;;;12.07;100.00
66273;BME280;58450;52.150;4.466;2023-06-05T03:46:34;102341.81;;;12.07;100.00
66273;BME280;58450;52.150;4.466;2023-06-05T03:49:03;102345.38;;;12.08;100.00
66273;BME280;58450;52.150;4.466;2023-06-05T03:51:35;102346.84;;;12.02;100.00
66273;BME280;58450;52.150;4.466;2023-06-05T03:54:04;102344.19;;;12.10;100.00
66273;BME280;58450;52.150;4.466;2023-06-05T03:56:34;102346.06;;;12.10;100.00
66273;BME280;58450;52.150;4.466;2023-06-05T03:59:05;102348.59;;;12.11;100.00
66273;BME280;58450;52.150;4.466;2023-06-05T04:01:44;102349.59;;;12.10;100.00
66273;BME280;58450;52.150;4.466;2023-06-05T04:04:11;102354.16;;;12.10;100.00
66273;BME280;58450;52.150;4.466;2023-06-05T04:06:39;102358.31;;;12.04;100.00
66273;BME280;58450;52.150;4.466;2023-06-05T04:09:08;102361.38;;;12.09;100.00
66273;BME280;58450;52.150;4.466;2023-06-05T04:11:39;102358.78;;;12.26;100.00
66273;BME280;58450;52.150;4.466;2023-06-05T04:14:08;102355.63;;;12.31;100.00
66273;BME280;58450;52.150;4.466;2023-06-05T04:16:37;102355.81;;;12.37;100.00
66273;BME280;58450;52.150;4.466;2023-06-05T04:19:05;102358.50;;;12.37;100.00
66273;BME280;58450;52.150;4.466;2023-06-05T04:21:33;102361.38;;;12.44;100.00
66273;BME280;58450;52.150;4.466;2023-06-05T04:24:01;102351.81;;;12.50;100.00
66273;BME280;58450;52.150;4.466;2023-06-05T04:26:34;102354.91;;;12.63;100.00
66273;BME280;58450;52.150;4.466;2023-06-05T04:29:03;102354.56;;;12.66;100.00
66273;BME280;58450;52.150;4.466;2023-06-05T04:31:36;102353.59;;;12.76;100.00
66273;BME280;58450;52.150;4.466;2023-06-05T04:34:06;102359.53;;;12.88;100.00
66273;BME280;58450;52.150;4.466;2023-06-05T04:36:35;102354.13;;;12.96;100.00
66273;BME280;58450;52.150;4.466;2023-06-05T04:39:04;102358.88;;;13.02;100.00
66273;BME280;58450;52.150;4.466;2023-06-05T04:41:34;102369.03;;;13.17;100.00
66273;BME280;58450;52.150;4.466;2023-06-05T04:44:02;102373.94;;;13.21;100.00
66273;BME280;58450;52.150;4.466;2023-06-05T04:46:29;102373.78;;;13.23;100.00
66273;BME280;58450;52.150;4.466;2023-06-05T04:48:57;102373.78;;;13.39;100.00
66273;BME280;58450;52.150;4.466;2023-06-05T04:51:25;102364.00;;;13.47;100.00
66273;BME280;58450;52.150;4.466;2023-06-05T04:53:52;102365.22;;;13.52;100.00
66273;BME280;58450;52.150;4.466;2023-06-05T04:56:21;102361.66;;;13.60;100.00
66273;BME280;58450;52.150;4.466;2023-06-05T04:58:50;102377.19;;;13.74;100.00
66273;BME280;58450;52.150;4.466;2023-06-05T05:01:19;102374.31;;;13.76;100.00
66273;BME280;58450;52.150;4.466;2023-06-05T05:03:47;102373.13;;;13.87;100.00
66273;BME280;58450;52.150;4.466;2023-06-05T05:06:15;102376.50;;;13.89;100.00
66273;BME280;58450;52.150;4.466;2023-06-05T05:08:43;102378.00;;;13.92;100.00
66273;BME280;58450;52.150;4.466;2023-06-05T05:11:12;102377.31;;;13.98;100.00
66273;BME280;58450;52.150;4.466;2023-06-05T05:13:40;102378.69;;;13.94;100.00
66273;BME280;58450;52.150;4.466;2023-06-05T05:16:09;102372.59;;;13.92;100.00
66273;BME280;58450;52.150;4.466;2023-06-05T05:18:40;102377.16;;;14.08;100.00
66273;BME280;58450;52.150;4.466;2023-06-05T05:21:11;102375.94;;;14.10;100.00
66273;BME280;58450;52.150;4.466;2023-06-05T05:23:39;102376.81;;;14.11;100.00
66273;BME280;58450;52.150;4.466;2023-06-05T05:26:07;102374.41;;;14.16;100.00
66273;BME280;58450;52.150;4.466;2023-06-05T05:28:34;102363.94;;;14.13;100.00
66273;BME280;58450;52.150;4.466;2023-06-05T05:31:02;102356.84;;;14.12;100.00
66273;BME280;58450;52.150;4.466;2023-06-05T05:33:31;102372.25;;;14.03;100.00
66273;BME280;58450;52.150;4.466;2023-06-05T05:35:59;102361.53;;;14.18;100.00
66273;BME280;58450;52.150;4.466;2023-06-05T05:38:26;102363.75;;;14.14;100.00
66273;BME280;58450;52.150;4.466;2023-06-05T05:40:54;102361.69;;;14.25;100.00
66273;BME280;58450;52.150;4.466;2023-06-05T05:43:21;102362.75;;;14.15;100.00
66273;BME280;58450;52.150;4.466;2023-06-05T05:45:49;102365.06;;;14.35;100.00
66273;BME280;58450;52.150;4.466;2023-06-05T05:48:16;102365.72;;;14.37;100.00
66273;BME280;58450;52.150;4.466;2023-06-05T05:50:45;102364.50;;;14.40;100.00
66273;BME280;58450;52.150;4.466;2023-06-05T05:53:13;102361.06;;;14.54;100.00
66273;BME280;58450;52.150;4.466;2023-06-05T05:55:41;102366.72;;;14.44;100.00
66273;BME280;58450;52.150;4.466;2023-06-05T05:58:08;102364.09;;;14.59;100.00
66273;BME280;58450;52.150;4.466;2023-06-05T06:00:36;102360.91;;;14.56;100.00
66273;BME280;58450;52.150;4.466;2023-06-05T06:03:03;102362.16;;;14.76;100.00
66273;BME280;58450;52.150;4.466;2023-06-05T06:05:31;102368.78;;;15.05;100.00
66273;BME280;58450;52.150;4.466;2023-06-05T06:08:01;102371.69;;;15.27;100.00
66273;BME280;58450;52.150;4.466;2023-06-05T06:10:29;102362.44;;;15.13;100.00
66273;BME280;58450;52.150;4.466;2023-06-05T06:12:57;102372.28;;;15.14;100.00
66273;BME280;58450;52.150;4.466;2023-06-05T06:15:25;102385.66;;;15.39;100.00
66273;BME280;58450;52.150;4.466;2023-06-05T06:17:53;102367.59;;;15.31;100.00
66273;BME280;58450;52.150;4.466;2023-06-05T06:20:20;102373.25;;;15.45;100.00
66273;BME280;58450;52.150;4.466;2023-06-05T06:22:48;102382.69;;;15.49;100.00
66273;BME280;58450;52.150;4.466;2023-06-05T06:25:19;102369.31;;;15.47;100.00
66273;BME280;58450;52.150;4.466;2023-06-05T06:27:47;102372.56;;;15.66;100.00
66273;BME280;58450;52.150;4.466;2023-06-05T06:30:15;102378.38;;;15.78;100.00
66273;BME280;58450;52.150;4.466;2023-06-05T06:32:43;102376.69;;;15.77;100.00
66273;BME280;58450;52.150;4.466;2023-06-05T06:35:11;102372.56;;;15.81;100.00
66273;BME280;58450;52.150;4.466;2023-06-05T06:37:39;102381.72;;;16.03;100.00
66273;BME280;58450;52.150;4.466;2023-06-05T06:40:08;102383.97;;;16.00;100.00
66273;BME280;58450;52.150;4.466;2023-06-05T06:42:38;102379.75;;;16.12;100.00
66273;BME280;58450;52.150;4.466;2023-06-05T06:45:06;102382.13;;;16.15;100.00
66273;BME280;58450;52.150;4.466;2023-06-05T06:47:34;102384.34;;;16.42;100.00
66273;BME280;58450;52.150;4.466;2023-06-05T06:50:02;102376.84;;;16.44;100.00
66273;BME280;58450;52.150;4.466;2023-06-05T06:52:30;102376.66;;;16.60;100.00
66273;BME280;58450;52.150;4.466;2023-06-05T06:54:58;102381.13;;;16.68;100.00
66273;BME280;58450;52.150;4.466;2023-06-05T06:57:26;102379.97;;;16.77;100.00
66273;BME280;58450;52.150;4.466;2023-06-05T06:59:54;102387.56;;;16.82;100.00
66273;BME280;58450;52.150;4.466;2023-06-05T07:02:24;102389.00;;;17.15;100.00
66273;BME280;58450;52.150;4.466;2023-06-05T07:04:52;102379.59;;;17.17;100.00
66273;BME280;58450;52.150;4.466;2023-06-05T07:07:20;102381.41;;;17.10;100.00
66273;BME280;58450;52.150;4.466;2023-06-05T07:09:49;102388.72;;;17.53;100.00
66273;BME280;58450;52.150;4.466;2023-06-05T07:12:18;102391.28;;;17.33;100.00
66273;BME280;58450;52.150;4.466;2023-06-05T07:14:48;102390.31;;;17.69;100.00
66273;BME280;58450;52.150;4.466;2023-06-05T07:17:17;102385.44;;;17.86;100.00
66273;BME280;58450;52.150;4.466;2023-06-05T07:19:45;102396.97;;;17.88;100.00
66273;BME280;58450;52.150;4.466;2023-06-05T07:22:12;102395.97;;;17.96;100.00
66273;BME280;58450;52.150;4.466;2023-06-05T07:24:40;102392.13;;;18.12;100.00
66273;BME280;58450;52.150;4.466;2023-06-05T07:27:07;102395.56;;;18.27;100.00
66273;BME280;58450;52.150;4.466;2023-06-05T07:29:36;102398.94;;;18.71;100.00
66273;BME280;58450;52.150;4.466;2023-06-05T07:32:04;102401.88;;;18.70;100.00
66273;BME280;58450;52.150;4.466;2023-06-05T07:34:34;102396.78;;;19.09;100.00
66273;BME280;58450;52.150;4.466;2023-06-05T07:37:02;102396.00;;;19.28;100.00
66273;BME280;58450;52.150;4.466;2023-06-05T07:39:30;102397.59;;;19.02;100.00
66273;BME280;58450;52.150;4.466;2023-06-05T07:41:58;102399.31;;;19.24;100.00
66273;BME280;58450;52.150;4.466;2023-06-05T07:44:26;102396.00;;;19.28;100.00
66273;BME280;58450;52.150;4.466;2023-06-05T07:46:53;102397.47;;;19.71;99.66
66273;BME280;58450;52.150;4.466;2023-06-05T07:49:21;102397.25;;;19.93;98.70
66273;BME280;58450;52.150;4.466;2023-06-05T07:51:50;102398.50;;;20.17;96.33
66273;BME280;58450;52.150;4.466;2023-06-05T07:54:18;102394.72;;;20.12;93.34
66273;BME280;58450;52.150;4.466;2023-06-05T07:56:48;102400.94;;;20.39;93.82
66273;BME280;58450;52.150;4.466;2023-06-05T07:59:17;102389.28;;;20.71;92.49
66273;BME280;58450;52.150;4.466;2023-06-05T08:01:50;102398.22;;;20.91;90.27
66273;BME280;58450;52.150;4.466;2023-06-05T08:04:18;102403.38;;;21.13;89.35
66273;BME280;58450;52.150;4.466;2023-06-05T08:06:45;102393.84;;;21.22;87.91
66273;BME280;58450;52.150;4.466;2023-06-05T08:09:15;102397.81;;;21.26;85.68
66273;BME280;58450;52.150;4.466;2023-06-05T08:11:42;102389.06;;;21.43;85.98
66273;BME280;58450;52.150;4.466;2023-06-05T08:14:10;102391.16;;;21.73;85.68
66273;BME280;58450;52.150;4.466;2023-06-05T08:16:37;102396.06;;;21.90;83.85
66273;BME280;58450;52.150;4.466;2023-06-05T08:19:05;102378.72;;;21.96;81.86
66273;BME280;58450;52.150;4.466;2023-06-05T08:21:33;102381.94;;;22.11;79.27
66273;BME280;58450;52.150;4.466;2023-06-05T08:24:02;102378.19;;;22.24;79.43
66273;BME280;58450;52.150;4.466;2023-06-05T08:26:32;102384.34;;;22.01;79.37
66273;BME280;58450;52.150;4.466;2023-06-05T08:28:59;102384.38;;;22.20;80.89
66273;BME280;58450;52.150;4.466;2023-06-05T08:31:27;102378.34;;;22.11;79.16
66273;BME280;58450;52.150;4.466;2023-06-05T08:33:54;102386.66;;;22.41;79.71
66273;BME280;58450;52.150;4.466;2023-06-05T08:36:22;102389.59;;;22.47;79.24
66273;BME280;58450;52.150;4.466;2023-06-05T08:38:50;102381.09;;;22.67;78.50
66273;BME280;58450;52.150;4.466;2023-06-05T08:41:18;102378.28;;;22.55;76.69
66273;BME280;58450;52.150;4.466;2023-06-05T08:43:47;102380.56;;;22.58;76.16
66273;BME280;58450;52.150;4.466;2023-06-05T08:46:15;102368.63;;;22.52;75.54
66273;BME280;58450;52.150;4.466;2023-06-05T08:48:44;102374.91;;;22.71;75.77
66273;BME280;58450;52.150;4.466;2023-06-05T08:51:14;102365.81;;;22.90;75.47
66273;BME280;58450;52.150;4.466;2023-06-05T08:53:46;102358.06;;;22.98;74.12
66273;BME280;58450;52.150;4.466;2023-06-05T08:56:19;102365.16;;;23.18;74.16
66273;BME280;58450;52.150;4.466;2023-06-05T08:58:49;102361.94;;;23.21;73.33
66273;BME280;58450;52.150;4.466;2023-06-05T09:01:17;102357.56;;;23.44;71.44
66273;BME280;58450;52.150;4.466;2023-06-05T09:03:44;102359.88;;;23.59;71.75
66273;BME280;58450;52.150;4.466;2023-06-05T09:06:12;102365.13;;;23.37;70.15
66273;BME280;58450;52.150;4.466;2023-06-05T09:08:39;102371.78;;;22.98;70.83
66273;BME280;58450;52.150;4.466;2023-06-05T09:11:23;102365.13;;;23.37;72.44
66273;BME280;58450;52.150;4.466;2023-06-05T09:13:55;102363.53;;;23.29;72.74
66273;BME280;58450;52.150;4.466;2023-06-05T09:16:32;102367.63;;;23.62;72.30
66273;BME280;58450;52.150;4.466;2023-06-05T09:19:01;102359.97;;;23.76;71.85
66273;BME280;58450;52.150;4.466;2023-06-05T09:21:30;102357.22;;;23.88;70.47
66273;BME280;58450;52.150;4.466;2023-06-05T09:24:12;102352.34;;;24.02;70.21
66273;BME280;58450;52.150;4.466;2023-06-05T09:26:52;102351.66;;;24.35;68.27
66273;BME280;58450;52.150;4.466;2023-06-05T09:29:24;102347.38;;;24.69;68.45
66273;BME280;58450;52.150;4.466;2023-06-05T09:31:54;102358.97;;;24.71;67.98
66273;BME280;58450;52.150;4.466;2023-06-05T09:34:24;102360.88;;;24.70;66.28
66273;BME280;58450;52.150;4.466;2023-06-05T09:36:54;102355.63;;;24.98;66.30
66273;BME280;58450;52.150;4.466;2023-06-05T09:39:24;102348.41;;;25.08;65.81
66273;BME280;58450;52.150;4.466;2023-06-05T09:41:53;102345.63;;;25.08;64.54
66273;BME280;58450;52.150;4.466;2023-06-05T09:44:24;102355.53;;;24.92;65.03
66273;BME280;58450;52.150;4.466;2023-06-05T09:46:54;102351.56;;;25.17;64.96
66273;BME280;58450;52.150;4.466;2023-06-05T09:49:25;102345.13;;;25.29;63.88
66273;BME280;58450;52.150;4.466;2023-06-05T09:51:55;102352.91;;;25.32;62.50
66273;BME280;58450;52.150;4.466;2023-06-05T09:54:25;102353.56;;;25.22;63.40
66273;BME280;58450;52.150;4.466;2023-06-05T09:56:57;102352.13;;;25.36;62.29
66273;BME280;58450;52.150;4.466;2023-06-05T09:59:29;102346.81;;;25.13;62.23
66273;BME280;58450;52.150;4.466;2023-06-05T10:02:00;102349.78;;;25.28;61.84
66273;BME280;58450;52.150;4.466;2023-06-05T10:04:37;102357.25;;;25.45;62.06
66273;BME280;58450;52.150;4.466;2023-06-05T10:07:09;102342.25;;;25.52;61.62
66273;BME280;58450;52.150;4.466;2023-06-05T10:09:37;102340.66;;;25.57;60.23
66273;BME280;58450;52.150;4.466;2023-06-05T10:12:06;102345.94;;;25.80;61.05
66273;BME280;58450;52.150;4.466;2023-06-05T10:14:36;102332.88;;;25.54;60.88
66273;BME280;58450;52.150;4.466;2023-06-05T10:17:08;102336.50;;;25.76;60.19
66273;BME280;58450;52.150;4.466;2023-06-05T10:19:41;102335.69;;;25.98;58.93
66273;BME280;58450;52.150;4.466;2023-06-05T10:22:09;102330.28;;;26.25;59.49
66273;BME280;58450;52.150;4.466;2023-06-05T10:24:41;102339.63;;;26.02;58.22
66273;BME280;58450;52.150;4.466;2023-06-05T10:27:24;102337.66;;;26.42;58.57
66273;BME280;58450;52.150;4.466;2023-06-05T10:33:56;102332.34;;;26.35;57.06
66273;BME280;58450;52.150;4.466;2023-06-05T10:36:53;102326.97;;;26.06;58.04
66273;BME280;58450;52.150;4.466;2023-06-05T10:39:39;102333.22;;;25.79;57.56
66273;BME280;58450;52.150;4.466;2023-06-05T10:42:07;102329.75;;;25.67;58.80
66273;BME280;58450;52.150;4.466;2023-06-05T10:44:38;102325.09;;;25.67;59.82
66273;BME280;58450;52.150;4.466;2023-06-05T10:50:37;102320.31;;;23.60;65.50
66273;BME280;58450;52.150;4.466;2023-06-05T10:53:04;102321.25;;;23.42;68.57
66273;BME280;58450;52.150;4.466;2023-06-05T10:55:41;102313.75;;;23.37;68.53
66273;BME280;58450;52.150;4.466;2023-06-05T10:58:11;102329.66;;;22.43;73.27
66273;BME280;58450;52.150;4.466;2023-06-05T11:01:17;102320.75;;;23.21;73.53
66273;BME280;58450;52.150;4.466;2023-06-05T11:03:54;102318.47;;;23.18;73.51
66273;BME280;58450;52.150;4.466;2023-06-05T11:06:25;102318.63;;;23.35;72.58
66273;BME280;58450;52.150;4.466;2023-06-05T11:09:09;102327.72;;;22.93;72.67
66273;BME280;58450;52.150;4.466;2023-06-05T11:11:57;102324.16;;;22.93;75.24
66273;BME280;58450;52.150;4.466;2023-06-05T11:14:43;102332.22;;;22.08;73.51
66273;BME280;58450;52.150;4.466;2023-06-05T11:17:33;102321.63;;;22.11;78.57
66273;BME280;58450;52.150;4.466;2023-06-05T11:20:02;102324.53;;;21.22;80.22
66273;BME280;58450;52.150;4.466;2023-06-05T11:23:06;102318.22;;;21.72;81.06
66273;BME280;58450;52.150;4.466;2023-06-05T11:25:34;102315.88;;;22.13;79.41
66273;BME280;58450;52.150;4.466;2023-06-05T11:28:03;102314.03;;;22.63;78.84
66273;BME280;58450;52.150;4.466;2023-06-05T11:30:39;102312.72;;;21.53;77.61
66273;BME280;58450;52.150;4.466;2023-06-05T11:33:09;102311.03;;;21.78;82.40
66273;BME280;58450;52.150;4.466;2023-06-05T11:35:39;102318.66;;;21.50;81.18
66273;BME280;58450;52.150;4.466;2023-06-05T11:38:10;102312.00;;;20.82;83.84
66273;BME280;58450;52.150;4.466;2023-06-05T11:40:40;102309.75;;;21.04;84.36
66273;BME280;58450;52.150;4.466;2023-06-05T11:43:09;102314.06;;;21.44;83.86
66273;BME280;58450;52.150;4.466;2023-06-05T11:45:39;102312.25;;;21.57;81.43
66273;BME280;58450;52.150;4.466;2023-06-05T11:48:09;102307.44;;;21.52;81.70
66273;BME280;58450;52.150;4.466;2023-06-05T11:50:39;102306.94;;;22.06;80.72
66273;BME280;58450;52.150;4.466;2023-06-05T11:53:21;102306.22;;;22.10;79.86
66273;BME280;58450;52.150;4.466;2023-06-05T11:55:49;102301.81;;;21.91;78.45
66273;BME280;58450;52.150;4.466;2023-06-05T11:58:34;102306.06;;;21.17;84.66
66273;BME280;58450;52.150;4.466;2023-06-05T12:01:07;102305.75;;;20.68;86.84
66273;BME280;58450;52.150;4.466;2023-06-05T12:03:38;102303.91;;;21.70;85.45
66273;BME280;58450;52.150;4.466;2023-06-05T12:06:06;102308.50;;;21.76;83.24
66273;BME280;58450;52.150;4.466;2023-06-05T12:08:36;102305.44;;;22.40;79.96
66273;BME280;58450;52.150;4.466;2023-06-05T12:11:04;102310.47;;;23.16;77.35
66273;BME280;58450;52.150;4.466;2023-06-05T12:13:47;102304.81;;;22.99;72.84
66273;BME280;58450;52.150;4.466;2023-06-05T12:16:17;102304.19;;;23.64;72.93
66273;BME280;58450;52.150;4.466;2023-06-05T12:18:45;102306.06;;;23.87;70.52
66273;BME280;58450;52.150;4.466;2023-06-05T12:21:22;102296.13;;;23.02;72.88
66273;BME280;58450;52.150;4.466;2023-06-05T12:24:00;102301.44;;;23.28;72.36
66273;BME280;58450;52.150;4.466;2023-06-05T12:26:28;102304.91;;;23.83;70.87
66273;BME280;58450;52.150;4.466;2023-06-05T12:29:03;102306.22;;;23.33;70.89
66273;BME280;58450;52.150;4.466;2023-06-05T12:31:32;102297.81;;;23.87;70.76
66273;BME280;58450;52.150;4.466;2023-06-05T12:34:05;102301.78;;;24.73;66.71
66273;BME280;58450;52.150;4.466;2023-06-05T12:36:38;102299.84;;;24.73;65.60
66273;BME280;58450;52.150;4.466;2023-06-05T12:39:09;102303.38;;;25.20;65.53
66273;BME280;58450;52.150;4.466;2023-06-05T12:41:39;102301.97;;;25.51;63.07
66273;BME280;58450;52.150;4.466;2023-06-05T12:44:07;102293.28;;;23.93;65.36
66273;BME280;58450;52.150;4.466;2023-06-05T12:46:35;102298.25;;;24.48;65.86
66273;BME280;58450;52.150;4.466;2023-06-05T12:49:04;102292.00;;;23.71;67.37
66273;BME280;58450;52.150;4.466;2023-06-05T12:51:32;102295.78;;;23.11;68.60
66273;BME280;58450;52.150;4.466;2023-06-05T12:54:00;102290.63;;;23.98;68.83
66273;BME280;58450;52.150;4.466;2023-06-05T12:56:30;102288.31;;;23.54;69.49
66273;BME280;58450;52.150;4.466;2023-06-05T12:59:01;102284.69;;;24.59;68.43
66273;BME280;58450;52.150;4.466;2023-06-05T13:01:29;102294.19;;;25.65;67.04
66273;BME280;58450;52.150;4.466;2023-06-05T13:03:57;102287.75;;;25.43;65.71